sensor_id;sensor_type;location;lat;lon;timestamp;P1;durP1;ratioP1;P2;durP2;ratioP2
37855;SDS011;23694;43.274;26.924;2023-03-14T00:02:08;5.73;;;3.47;;
37855;SDS011;23694;43.274;26.924;2023-03-14T00:04:35;5.63;;;3.00;;
37855;SDS011;23694;43.274;26.924;2023-03-14T00:07:01;4.93;;;3.13;;
37855;SDS011;23694;43.274;26.924;2023-03-14T00:09:28;7.47;;;4.27;;
37855;SDS011;23694;43.274;26.924;2023-03-14T00:11:55;5.90;;;3.87;;
37855;SDS011;23694;43.274;26.924;2023-03-14T00:14:22;6.70;;;4.40;;
37855;SDS011;23694;43.274;26.924;2023-03-14T00:16:48;10.87;;;5.80;;
37855;SDS011;23694;43.274;26.924;2023-03-14T00:19:14;11.73;;;6.53;;
37855;SDS011;23694;43.274;26.924;2023-03-14T00:21:40;12.20;;;7.27;;
37855;SDS011;23694;43.274;26.924;2023-03-14T00:24:07;7.73;;;4.90;;
37855;SDS011;23694;43.274;26.924;2023-03-14T00:26:34;26.43;;;12.80;;
37855;SDS011;23694;43.274;26.924;2023-03-14T00:29:00;29.60;;;16.20;;
37855;SDS011;23694;43.274;26.924;2023-03-14T00:31:26;21.20;;;11.73;;
37855;SDS011;23694;43.274;26.924;2023-03-14T00:33:52;25.60;;;13.80;;
37855;SDS011;23694;43.274;26.924;2023-03-14T00:36:18;18.90;;;11.10;;
37855;SDS011;23694;43.274;26.924;2023-03-14T00:38:46;25.37;;;12.87;;
37855;SDS011;23694;43.274;26.924;2023-03-14T00:41:15;23.13;;;13.50;;
37855;SDS011;23694;43.274;26.924;2023-03-14T00:43:48;22.40;;;12.37;;
37855;SDS011;23694;43.274;26.924;2023-03-14T00:46:14;19.70;;;12.60;;
37855;SDS011;23694;43.274;26.924;2023-03-14T00:48:41;20.63;;;11.50;;
37855;SDS011;23694;43.274;26.924;2023-03-14T00:51:07;15.70;;;10.03;;
37855;SDS011;23694;43.274;26.924;2023-03-14T00:53:34;13.13;;;8.87;;
37855;SDS011;23694;43.274;26.924;2023-03-14T00:56:02;10.80;;;7.87;;
37855;SDS011;23694;43.274;26.924;2023-03-14T00:58:29;13.83;;;8.70;;
37855;SDS011;23694;43.274;26.924;2023-03-14T01:00:56;16.00;;;9.53;;
37855;SDS011;23694;43.274;26.924;2023-03-14T01:03:22;17.77;;;11.90;;
37855;SDS011;23694;43.274;26.924;2023-03-14T01:05:49;18.20;;;11.43;;
37855;SDS011;23694;43.274;26.924;2023-03-14T01:08:16;17.60;;;11.23;;
37855;SDS011;23694;43.274;26.924;2023-03-14T01:10:42;19.30;;;11.77;;
37855;SDS011;23694;43.274;26.924;2023-03-14T01:13:09;19.40;;;10.67;;
37855;SDS011;23694;43.274;26.924;2023-03-14T01:15:36;17.30;;;8.43;;
37855;SDS011;23694;43.274;26.924;2023-03-14T01:18:03;15.17;;;8.73;;
37855;SDS011;23694;43.274;26.924;2023-03-14T01:20:30;12.23;;;6.77;;
37855;SDS011;23694;43.274;26.924;2023-03-14T01:22:58;11.47;;;7.27;;
37855;SDS011;23694;43.274;26.924;2023-03-14T01:25:24;10.40;;;6.43;;
37855;SDS011;23694;43.274;26.924;2023-03-14T01:27:50;7.57;;;5.47;;
37855;SDS011;23694;43.274;26.924;2023-03-14T01:30:16;10.63;;;5.90;;
37855;SDS011;23694;43.274;26.924;2023-03-14T01:32:42;7.13;;;5.57;;
37855;SDS011;23694;43.274;26.924;2023-03-14T01:35:09;9.43;;;6.70;;
37855;SDS011;23694;43.274;26.924;2023-03-14T01:37:35;9.90;;;6.87;;
37855;SDS011;23694;43.274;26.924;2023-03-14T01:40:01;11.70;;;7.97;;
37855;SDS011;23694;43.274;26.924;2023-03-14T01:42:28;11.73;;;6.47;;
37855;SDS011;23694;43.274;26.924;2023-03-14T01:44:55;10.47;;;6.60;;
37855;SDS011;23694;43.274;26.924;2023-03-14T01:47:23;8.23;;;5.13;;
37855;SDS011;23694;43.274;26.924;2023-03-14T01:49:51;9.43;;;6.53;;
37855;SDS011;23694;43.274;26.924;2023-03-14T01:54:51;10.20;;;6.73;;
37855;SDS011;23694;43.274;26.924;2023-03-14T02:00:03;7.00;;;5.00;;
37855;SDS011;23694;43.274;26.924;2023-03-14T02:02:40;5.67;;;4.43;;
37855;SDS011;23694;43.274;26.924;2023-03-14T02:05:10;8.47;;;5.27;;
37855;SDS011;23694;43.274;26.924;2023-03-14T02:07:40;6.70;;;4.87;;
37855;SDS011;23694;43.274;26.924;2023-03-14T02:10:16;7.43;;;4.83;;
37855;SDS011;23694;43.274;26.924;2023-03-14T02:12:45;11.97;;;7.23;;
37855;SDS011;23694;43.274;26.924;2023-03-14T02:15:13;15.53;;;9.07;;
37855;SDS011;23694;43.274;26.924;2023-03-14T02:17:40;13.37;;;8.20;;
37855;SDS011;23694;43.274;26.924;2023-03-14T02:23:02;10.50;;;7.10;;
37855;SDS011;23694;43.274;26.924;2023-03-14T02:28:19;13.80;;;9.00;;
37855;SDS011;23694;43.274;26.924;2023-03-14T02:30:46;25.00;;;14.40;;
37855;SDS011;23694;43.274;26.924;2023-03-14T02:33:13;23.53;;;15.93;;
37855;SDS011;23694;43.274;26.924;2023-03-14T02:35:46;28.63;;;17.73;;
37855;SDS011;23694;43.274;26.924;2023-03-14T02:41:01;23.17;;;12.90;;
37855;SDS011;23694;43.274;26.924;2023-03-14T02:43:28;27.37;;;15.50;;
37855;SDS011;23694;43.274;26.924;2023-03-14T02:45:54;62.23;;;33.40;;
37855;SDS011;23694;43.274;26.924;2023-03-14T02:48:22;54.17;;;30.23;;
37855;SDS011;23694;43.274;26.924;2023-03-14T02:50:59;46.50;;;26.53;;
37855;SDS011;23694;43.274;26.924;2023-03-14T02:53:28;48.23;;;26.70;;
37855;SDS011;23694;43.274;26.924;2023-03-14T02:55:56;39.47;;;22.13;;
37855;SDS011;23694;43.274;26.924;2023-03-14T02:58:23;44.57;;;26.53;;
37855;SDS011;23694;43.274;26.924;2023-03-14T03:00:50;37.40;;;21.67;;
37855;SDS011;23694;43.274;26.924;2023-03-14T03:03:16;30.70;;;18.97;;
37855;SDS011;23694;43.274;26.924;2023-03-14T03:05:42;22.83;;;13.77;;
37855;SDS011;23694;43.274;26.924;2023-03-14T03:08:09;18.47;;;12.43;;
37855;SDS011;23694;43.274;26.924;2023-03-14T03:10:36;13.47;;;9.13;;
37855;SDS011;23694;43.274;26.924;2023-03-14T03:13:02;10.37;;;7.03;;
37855;SDS011;23694;43.274;26.924;2023-03-14T03:15:28;7.73;;;5.07;;
37855;SDS011;23694;43.274;26.924;2023-03-14T03:17:54;7.57;;;4.63;;
37855;SDS011;23694;43.274;26.924;2023-03-14T03:20:20;6.50;;;4.37;;
37855;SDS011;23694;43.274;26.924;2023-03-14T03:22:46;5.60;;;4.00;;
37855;SDS011;23694;43.274;26.924;2023-03-14T03:25:12;9.40;;;4.47;;
37855;SDS011;23694;43.274;26.924;2023-03-14T03:27:38;5.00;;;3.17;;
37855;SDS011;23694;43.274;26.924;2023-03-14T03:30:05;5.13;;;2.90;;
37855;SDS011;23694;43.274;26.924;2023-03-14T03:32:32;5.63;;;3.13;;
37855;SDS011;23694;43.274;26.924;2023-03-14T03:34:58;7.50;;;2.90;;
37855;SDS011;23694;43.274;26.924;2023-03-14T03:37:24;5.50;;;3.07;;
37855;SDS011;23694;43.274;26.924;2023-03-14T03:39:50;4.70;;;3.00;;
37855;SDS011;23694;43.274;26.924;2023-03-14T03:42:17;6.37;;;3.03;;
37855;SDS011;23694;43.274;26.924;2023-03-14T03:44:43;8.07;;;3.07;;
37855;SDS011;23694;43.274;26.924;2023-03-14T03:47:10;5.03;;;3.07;;
37855;SDS011;23694;43.274;26.924;2023-03-14T03:49:36;6.53;;;3.47;;
37855;SDS011;23694;43.274;26.924;2023-03-14T03:52:02;7.77;;;3.43;;
37855;SDS011;23694;43.274;26.924;2023-03-14T03:54:28;7.33;;;3.30;;
37855;SDS011;23694;43.274;26.924;2023-03-14T03:56:54;7.30;;;3.30;;
37855;SDS011;23694;43.274;26.924;2023-03-14T03:59:21;7.20;;;3.43;;
37855;SDS011;23694;43.274;26.924;2023-03-14T04:01:47;9.53;;;4.50;;
37855;SDS011;23694;43.274;26.924;2023-03-14T04:04:13;6.70;;;3.90;;
37855;SDS011;23694;43.274;26.924;2023-03-14T04:06:39;9.83;;;4.40;;
37855;SDS011;23694;43.274;26.924;2023-03-14T04:09:07;13.30;;;5.77;;
37855;SDS011;23694;43.274;26.924;2023-03-14T04:11:34;12.23;;;7.00;;
37855;SDS011;23694;43.274;26.924;2023-03-14T04:14:00;31.47;;;16.13;;
37855;SDS011;23694;43.274;26.924;2023-03-14T04:16:26;41.53;;;24.27;;
37855;SDS011;23694;43.274;26.924;2023-03-14T04:18:52;40.27;;;22.40;;
37855;SDS011;23694;43.274;26.924;2023-03-14T04:21:19;43.20;;;24.47;;
37855;SDS011;23694;43.274;26.924;2023-03-14T04:23:45;43.17;;;24.07;;
37855;SDS011;23694;43.274;26.924;2023-03-14T04:26:11;48.67;;;25.33;;
37855;SDS011;23694;43.274;26.924;2023-03-14T04:28:37;41.60;;;25.57;;
37855;SDS011;23694;43.274;26.924;2023-03-14T04:31:11;38.17;;;22.10;;
37855;SDS011;23694;43.274;26.924;2023-03-14T04:33:39;43.00;;;24.93;;
37855;SDS011;23694;43.274;26.924;2023-03-14T04:36:06;36.77;;;20.83;;
37855;SDS011;23694;43.274;26.924;2023-03-14T04:38:33;30.00;;;18.57;;
37855;SDS011;23694;43.274;26.924;2023-03-14T04:40:59;21.17;;;11.27;;
37855;SDS011;23694;43.274;26.924;2023-03-14T04:43:26;16.93;;;8.63;;
37855;SDS011;23694;43.274;26.924;2023-03-14T04:45:56;14.53;;;7.77;;
37855;SDS011;23694;43.274;26.924;2023-03-14T04:48:23;11.07;;;6.87;;
37855;SDS011;23694;43.274;26.924;2023-03-14T04:50:51;14.10;;;7.40;;
37855;SDS011;23694;43.274;26.924;2023-03-14T04:53:19;9.63;;;5.83;;
37855;SDS011;23694;43.274;26.924;2023-03-14T04:55:49;18.63;;;8.70;;
37855;SDS011;23694;43.274;26.924;2023-03-14T04:58:19;19.60;;;9.93;;
37855;SDS011;23694;43.274;26.924;2023-03-14T05:00:47;23.50;;;15.77;;
37855;SDS011;23694;43.274;26.924;2023-03-14T05:03:16;11.33;;;5.80;;
37855;SDS011;23694;43.274;26.924;2023-03-14T05:05:43;11.87;;;5.87;;
37855;SDS011;23694;43.274;26.924;2023-03-14T05:08:09;11.03;;;5.60;;
37855;SDS011;23694;43.274;26.924;2023-03-14T05:10:35;17.10;;;8.60;;
37855;SDS011;23694;43.274;26.924;2023-03-14T05:13:01;18.47;;;10.30;;
37855;SDS011;23694;43.274;26.924;2023-03-14T05:15:28;21.67;;;11.23;;
37855;SDS011;23694;43.274;26.924;2023-03-14T05:17:54;24.20;;;10.87;;
37855;SDS011;23694;43.274;26.924;2023-03-14T05:20:20;18.90;;;9.00;;
37855;SDS011;23694;43.274;26.924;2023-03-14T05:22:46;20.57;;;11.77;;
37855;SDS011;23694;43.274;26.924;2023-03-14T05:25:13;10.67;;;6.70;;
37855;SDS011;23694;43.274;26.924;2023-03-14T05:27:39;13.97;;;6.93;;
37855;SDS011;23694;43.274;26.924;2023-03-14T05:30:08;22.03;;;12.63;;
37855;SDS011;23694;43.274;26.924;2023-03-14T05:32:34;10.77;;;6.60;;
37855;SDS011;23694;43.274;26.924;2023-03-14T05:35:00;10.53;;;5.93;;
37855;SDS011;23694;43.274;26.924;2023-03-14T05:37:26;21.70;;;13.57;;
37855;SDS011;23694;43.274;26.924;2023-03-14T05:39:52;18.47;;;9.40;;
37855;SDS011;23694;43.274;26.924;2023-03-14T05:42:18;14.63;;;7.20;;
37855;SDS011;23694;43.274;26.924;2023-03-14T05:44:44;20.77;;;8.60;;
37855;SDS011;23694;43.274;26.924;2023-03-14T05:47:10;12.60;;;7.27;;
37855;SDS011;23694;43.274;26.924;2023-03-14T05:49:37;11.23;;;7.93;;
37855;SDS011;23694;43.274;26.924;2023-03-14T05:52:03;17.33;;;9.07;;
37855;SDS011;23694;43.274;26.924;2023-03-14T05:54:29;15.43;;;8.60;;
37855;SDS011;23694;43.274;26.924;2023-03-14T05:56:55;14.20;;;6.60;;
37855;SDS011;23694;43.274;26.924;2023-03-14T05:59:21;11.87;;;5.30;;
37855;SDS011;23694;43.274;26.924;2023-03-14T06:01:47;10.20;;;5.17;;
37855;SDS011;23694;43.274;26.924;2023-03-14T06:04:13;12.07;;;5.13;;
37855;SDS011;23694;43.274;26.924;2023-03-14T06:06:39;8.77;;;5.07;;
37855;SDS011;23694;43.274;26.924;2023-03-14T06:09:05;10.60;;;4.73;;
37855;SDS011;23694;43.274;26.924;2023-03-14T06:11:31;9.73;;;3.83;;
37855;SDS011;23694;43.274;26.924;2023-03-14T06:13:57;8.43;;;3.37;;
37855;SDS011;23694;43.274;26.924;2023-03-14T06:16:23;14.03;;;4.87;;
37855;SDS011;23694;43.274;26.924;2023-03-14T06:18:49;12.10;;;4.30;;
37855;SDS011;23694;43.274;26.924;2023-03-14T06:21:15;8.00;;;3.80;;
37855;SDS011;23694;43.274;26.924;2023-03-14T06:23:41;10.03;;;4.53;;
37855;SDS011;23694;43.274;26.924;2023-03-14T06:26:07;9.60;;;4.50;;
37855;SDS011;23694;43.274;26.924;2023-03-14T06:28:33;9.60;;;4.50;;
37855;SDS011;23694;43.274;26.924;2023-03-14T06:31:00;9.40;;;4.70;;
37855;SDS011;23694;43.274;26.924;2023-03-14T06:33:26;8.77;;;4.73;;
37855;SDS011;23694;43.274;26.924;2023-03-14T06:35:52;13.63;;;5.87;;
37855;SDS011;23694;43.274;26.924;2023-03-14T06:38:18;10.13;;;5.10;;
37855;SDS011;23694;43.274;26.924;2023-03-14T06:40:45;10.93;;;5.07;;
37855;SDS011;23694;43.274;26.924;2023-03-14T06:43:11;11.37;;;5.33;;
37855;SDS011;23694;43.274;26.924;2023-03-14T06:45:37;12.70;;;6.33;;
37855;SDS011;23694;43.274;26.924;2023-03-14T06:48:03;10.17;;;6.13;;
37855;SDS011;23694;43.274;26.924;2023-03-14T06:50:29;7.63;;;4.70;;
37855;SDS011;23694;43.274;26.924;2023-03-14T06:52:55;8.93;;;5.17;;
37855;SDS011;23694;43.274;26.924;2023-03-14T06:55:21;11.40;;;6.27;;
37855;SDS011;23694;43.274;26.924;2023-03-14T06:57:47;10.77;;;5.43;;
37855;SDS011;23694;43.274;26.924;2023-03-14T07:00:14;6.83;;;4.20;;
37855;SDS011;23694;43.274;26.924;2023-03-14T07:02:40;10.10;;;4.60;;
37855;SDS011;23694;43.274;26.924;2023-03-14T07:05:06;11.57;;;4.90;;
37855;SDS011;23694;43.274;26.924;2023-03-14T07:07:33;8.27;;;4.07;;
37855;SDS011;23694;43.274;26.924;2023-03-14T07:09:59;6.33;;;4.30;;
37855;SDS011;23694;43.274;26.924;2023-03-14T07:12:25;12.50;;;4.60;;
37855;SDS011;23694;43.274;26.924;2023-03-14T07:14:51;10.53;;;4.63;;
37855;SDS011;23694;43.274;26.924;2023-03-14T07:17:17;6.80;;;3.60;;
37855;SDS011;23694;43.274;26.924;2023-03-14T07:19:43;7.37;;;3.60;;
37855;SDS011;23694;43.274;26.924;2023-03-14T07:22:09;9.63;;;3.87;;
37855;SDS011;23694;43.274;26.924;2023-03-14T07:24:35;8.27;;;3.80;;
37855;SDS011;23694;43.274;26.924;2023-03-14T07:27:01;5.30;;;3.03;;
37855;SDS011;23694;43.274;26.924;2023-03-14T07:29:27;10.63;;;3.57;;
37855;SDS011;23694;43.274;26.924;2023-03-14T07:31:53;8.70;;;3.73;;
37855;SDS011;23694;43.274;26.924;2023-03-14T07:34:19;8.80;;;3.80;;
37855;SDS011;23694;43.274;26.924;2023-03-14T07:36:45;6.70;;;3.13;;
37855;SDS011;23694;43.274;26.924;2023-03-14T07:39:11;6.90;;;3.00;;
37855;SDS011;23694;43.274;26.924;2023-03-14T07:41:37;4.60;;;2.10;;
37855;SDS011;23694;43.274;26.924;2023-03-14T07:44:03;5.67;;;2.00;;
37855;SDS011;23694;43.274;26.924;2023-03-14T07:46:29;5.70;;;2.43;;
37855;SDS011;23694;43.274;26.924;2023-03-14T07:48:55;4.73;;;1.80;;
37855;SDS011;23694;43.274;26.924;2023-03-14T07:51:21;3.37;;;1.90;;
37855;SDS011;23694;43.274;26.924;2023-03-14T07:53:47;4.93;;;1.90;;
37855;SDS011;23694;43.274;26.924;2023-03-14T07:56:13;2.53;;;1.57;;
37855;SDS011;23694;43.274;26.924;2023-03-14T07:58:39;3.40;;;1.50;;
37855;SDS011;23694;43.274;26.924;2023-03-14T08:01:06;4.23;;;1.57;;
37855;SDS011;23694;43.274;26.924;2023-03-14T08:03:33;2.97;;;1.67;;
37855;SDS011;23694;43.274;26.924;2023-03-14T08:05:59;2.13;;;1.20;;
37855;SDS011;23694;43.274;26.924;2023-03-14T08:08:25;3.07;;;1.67;;
37855;SDS011;23694;43.274;26.924;2023-03-14T08:10:51;2.33;;;1.30;;
37855;SDS011;23694;43.274;26.924;2023-03-14T08:13:17;2.27;;;1.20;;
37855;SDS011;23694;43.274;26.924;2023-03-14T08:15:46;2.73;;;0.97;;
37855;SDS011;23694;43.274;26.924;2023-03-14T08:18:14;3.50;;;1.10;;
37855;SDS011;23694;43.274;26.924;2023-03-14T08:20:40;7.30;;;2.10;;
37855;SDS011;23694;43.274;26.924;2023-03-14T08:23:06;2.97;;;1.57;;
37855;SDS011;23694;43.274;26.924;2023-03-14T08:25:32;4.10;;;1.30;;
37855;SDS011;23694;43.274;26.924;2023-03-14T08:27:58;1.90;;;1.00;;
37855;SDS011;23694;43.274;26.924;2023-03-14T08:30:24;2.37;;;0.90;;
37855;SDS011;23694;43.274;26.924;2023-03-14T08:32:50;5.50;;;1.10;;
37855;SDS011;23694;43.274;26.924;2023-03-14T08:35:17;1.50;;;1.03;;
37855;SDS011;23694;43.274;26.924;2023-03-14T08:37:43;1.80;;;1.03;;
37855;SDS011;23694;43.274;26.924;2023-03-14T08:40:09;2.50;;;0.90;;
37855;SDS011;23694;43.274;26.924;2023-03-14T08:42:37;4.03;;;1.53;;
37855;SDS011;23694;43.274;26.924;2023-03-14T08:45:05;5.33;;;1.80;;
37855;SDS011;23694;43.274;26.924;2023-03-14T08:47:32;3.90;;;1.20;;
37855;SDS011;23694;43.274;26.924;2023-03-14T08:49:59;3.20;;;1.50;;
37855;SDS011;23694;43.274;26.924;2023-03-14T08:52:25;3.40;;;1.10;;
37855;SDS011;23694;43.274;26.924;2023-03-14T08:54:51;1.33;;;0.83;;
37855;SDS011;23694;43.274;26.924;2023-03-14T08:57:17;1.90;;;1.13;;
37855;SDS011;23694;43.274;26.924;2023-03-14T08:59:43;3.13;;;0.93;;
37855;SDS011;23694;43.274;26.924;2023-03-14T09:02:10;3.00;;;0.90;;
37855;SDS011;23694;43.274;26.924;2023-03-14T09:04:37;2.00;;;1.00;;
37855;SDS011;23694;43.274;26.924;2023-03-14T09:07:03;1.80;;;1.20;;
37855;SDS011;23694;43.274;26.924;2023-03-14T09:09:30;1.90;;;1.00;;
37855;SDS011;23694;43.274;26.924;2023-03-14T09:11:56;3.57;;;1.17;;
37855;SDS011;23694;43.274;26.924;2023-03-14T09:14:23;3.03;;;0.97;;
37855;SDS011;23694;43.274;26.924;2023-03-14T09:16:49;2.93;;;1.00;;
37855;SDS011;23694;43.274;26.924;2023-03-14T09:19:16;5.23;;;1.30;;
37855;SDS011;23694;43.274;26.924;2023-03-14T09:21:42;3.47;;;1.20;;
37855;SDS011;23694;43.274;26.924;2023-03-14T09:24:08;1.50;;;0.90;;
37855;SDS011;23694;43.274;26.924;2023-03-14T09:26:34;1.80;;;0.93;;
37855;SDS011;23694;43.274;26.924;2023-03-14T09:29:00;1.70;;;0.90;;
37855;SDS011;23694;43.274;26.924;2023-03-14T09:31:26;1.30;;;1.00;;
37855;SDS011;23694;43.274;26.924;2023-03-14T09:33:53;2.03;;;0.93;;
37855;SDS011;23694;43.274;26.924;2023-03-14T09:36:19;1.40;;;0.90;;
37855;SDS011;23694;43.274;26.924;2023-03-14T09:38:45;3.67;;;0.90;;
37855;SDS011;23694;43.274;26.924;2023-03-14T09:41:15;1.00;;;0.80;;
37855;SDS011;23694;43.274;26.924;2023-03-14T09:44:04;2.57;;;1.00;;
37855;SDS011;23694;43.274;26.924;2023-03-14T09:46:35;1.27;;;0.80;;
37855;SDS011;23694;43.274;26.924;2023-03-14T09:49:07;3.70;;;1.00;;
37855;SDS011;23694;43.274;26.924;2023-03-14T09:51:37;1.63;;;0.70;;
37855;SDS011;23694;43.274;26.924;2023-03-14T09:54:05;3.17;;;0.90;;
37855;SDS011;23694;43.274;26.924;2023-03-14T09:56:32;4.40;;;1.30;;
37855;SDS011;23694;43.274;26.924;2023-03-14T09:58:59;2.33;;;1.10;;
37855;SDS011;23694;43.274;26.924;2023-03-14T10:01:30;3.17;;;2.10;;
37855;SDS011;23694;43.274;26.924;2023-03-14T10:03:58;2.50;;;0.80;;
37855;SDS011;23694;43.274;26.924;2023-03-14T10:06:29;1.60;;;1.00;;
37855;SDS011;23694;43.274;26.924;2023-03-14T10:08:56;1.80;;;0.80;;
37855;SDS011;23694;43.274;26.924;2023-03-14T10:11:23;1.00;;;0.80;;
37855;SDS011;23694;43.274;26.924;2023-03-14T10:16:36;1.90;;;0.70;;
37855;SDS011;23694;43.274;26.924;2023-03-14T10:19:07;1.07;;;0.73;;
37855;SDS011;23694;43.274;26.924;2023-03-14T10:21:37;1.37;;;0.80;;
37855;SDS011;23694;43.274;26.924;2023-03-14T10:24:51;2.20;;;0.80;;
37855;SDS011;23694;43.274;26.924;2023-03-14T10:26:59;2.33;;;1.10;;
37855;SDS011;23694;43.274;26.924;2023-03-14T10:29:31;1.80;;;0.90;;
37855;SDS011;23694;43.274;26.924;2023-03-14T10:31:59;3.13;;;1.00;;
37855;SDS011;23694;43.274;26.924;2023-03-14T10:34:35;2.50;;;1.23;;
37855;SDS011;23694;43.274;26.924;2023-03-14T10:39:44;1.80;;;1.00;;
37855;SDS011;23694;43.274;26.924;2023-03-14T10:44:49;2.00;;;1.10;;
37855;SDS011;23694;43.274;26.924;2023-03-14T10:49:48;3.13;;;1.33;;
37855;SDS011;23694;43.274;26.924;2023-03-14T10:52:18;1.87;;;1.10;;
37855;SDS011;23694;43.274;26.924;2023-03-14T10:54:57;2.53;;;1.10;;
37855;SDS011;23694;43.274;26.924;2023-03-14T10:57:25;4.20;;;1.43;;
37855;SDS011;23694;43.274;26.924;2023-03-14T10:59:51;1.83;;;0.70;;
37855;SDS011;23694;43.274;26.924;2023-03-14T11:08:16;1.50;;;0.80;;
37855;SDS011;23694;43.274;26.924;2023-03-14T11:10:45;2.33;;;1.10;;
37855;SDS011;23694;43.274;26.924;2023-03-14T11:21:28;1.40;;;0.80;;
37855;SDS011;23694;43.274;26.924;2023-03-14T11:35:13;1.80;;;1.00;;
37855;SDS011;23694;43.274;26.924;2023-03-14T11:37:42;1.38;;;0.88;;
37855;SDS011;23694;43.274;26.924;2023-03-14T11:40:19;2.63;;;1.10;;
37855;SDS011;23694;43.274;26.924;2023-03-14T11:45:51;2.27;;;1.43;;
37855;SDS011;23694;43.274;26.924;2023-03-14T11:51:25;3.13;;;0.73;;
37855;SDS011;23694;43.274;26.924;2023-03-14T11:59:18;1.73;;;1.00;;
37855;SDS011;23694;43.274;26.924;2023-03-14T12:01:51;2.00;;;1.00;;
37855;SDS011;23694;43.274;26.924;2023-03-14T12:04:40;2.67;;;1.00;;
37855;SDS011;23694;43.274;26.924;2023-03-14T12:07:12;1.57;;;1.10;;
37855;SDS011;23694;43.274;26.924;2023-03-14T12:09:45;1.33;;;0.97;;
37855;SDS011;23694;43.274;26.924;2023-03-14T12:12:16;3.97;;;1.20;;
37855;SDS011;23694;43.274;26.924;2023-03-14T12:14:53;3.15;;;1.00;;
37855;SDS011;23694;43.274;26.924;2023-03-14T12:17:24;2.77;;;1.07;;
37855;SDS011;23694;43.274;26.924;2023-03-14T12:20:39;3.63;;;0.80;;
37855;SDS011;23694;43.274;26.924;2023-03-14T12:22:46;3.45;;;1.10;;
37855;SDS011;23694;43.274;26.924;2023-03-14T12:25:20;1.20;;;0.80;;
37855;SDS011;23694;43.274;26.924;2023-03-14T12:30:44;2.33;;;0.87;;
37855;SDS011;23694;43.274;26.924;2023-03-14T12:38:04;3.93;;;0.70;;
37855;SDS011;23694;43.274;26.924;2023-03-14T12:40:39;1.30;;;0.90;;
37855;SDS011;23694;43.274;26.924;2023-03-14T12:51:17;2.13;;;1.00;;
37855;SDS011;23694;43.274;26.924;2023-03-14T12:54:00;2.47;;;0.73;;
37855;SDS011;23694;43.274;26.924;2023-03-14T12:59:50;2.07;;;0.80;;
37855;SDS011;23694;43.274;26.924;2023-03-14T13:04:50;1.43;;;0.60;;
37855;SDS011;23694;43.274;26.924;2023-03-14T13:07:33;1.60;;;0.70;;
37855;SDS011;23694;43.274;26.924;2023-03-14T13:15:26;4.13;;;0.90;;
37855;SDS011;23694;43.274;26.924;2023-03-14T13:18:03;1.00;;;0.57;;
37855;SDS011;23694;43.274;26.924;2023-03-14T13:20:36;2.40;;;0.80;;
37855;SDS011;23694;43.274;26.924;2023-03-14T13:23:17;1.30;;;0.80;;
37855;SDS011;23694;43.274;26.924;2023-03-14T13:25:46;1.23;;;0.80;;
37855;SDS011;23694;43.274;26.924;2023-03-14T13:28:13;1.40;;;0.80;;
37855;SDS011;23694;43.274;26.924;2023-03-14T13:30:41;1.40;;;0.90;;
37855;SDS011;23694;43.274;26.924;2023-03-14T13:33:15;1.10;;;0.70;;
37855;SDS011;23694;43.274;26.924;2023-03-14T13:36:00;2.17;;;1.10;;
37855;SDS011;23694;43.274;26.924;2023-03-14T13:38:34;3.80;;;1.00;;
37855;SDS011;23694;43.274;26.924;2023-03-14T13:41:05;1.25;;;0.60;;
37855;SDS011;23694;43.274;26.924;2023-03-14T13:43:33;1.92;;;1.00;;
37855;SDS011;23694;43.274;26.924;2023-03-14T13:46:05;1.20;;;0.75;;
37855;SDS011;23694;43.274;26.924;2023-03-14T13:49:01;2.20;;;0.73;;
37855;SDS011;23694;43.274;26.924;2023-03-14T13:51:29;1.90;;;0.63;;
37855;SDS011;23694;43.274;26.924;2023-03-14T13:54:01;2.23;;;0.73;;
37855;SDS011;23694;43.274;26.924;2023-03-14T13:56:30;1.53;;;0.70;;
37855;SDS011;23694;43.274;26.924;2023-03-14T13:58:58;1.70;;;0.97;;
37855;SDS011;23694;43.274;26.924;2023-03-14T14:01:25;1.23;;;0.70;;
37855;SDS011;23694;43.274;26.924;2023-03-14T14:03:54;1.33;;;0.63;;
37855;SDS011;23694;43.274;26.924;2023-03-14T14:08:48;1.37;;;0.43;;
37855;SDS011;23694;43.274;26.924;2023-03-14T14:11:29;2.80;;;1.10;;
37855;SDS011;23694;43.274;26.924;2023-03-14T14:13:59;2.07;;;0.67;;
37855;SDS011;23694;43.274;26.924;2023-03-14T14:16:26;2.53;;;0.90;;
37855;SDS011;23694;43.274;26.924;2023-03-14T14:18:53;2.00;;;0.77;;
37855;SDS011;23694;43.274;26.924;2023-03-14T14:21:22;2.47;;;0.80;;
37855;SDS011;23694;43.274;26.924;2023-03-14T14:23:49;1.70;;;0.93;;
37855;SDS011;23694;43.274;26.924;2023-03-14T14:26:16;1.50;;;0.90;;
37855;SDS011;23694;43.274;26.924;2023-03-14T14:28:44;2.70;;;1.10;;
37855;SDS011;23694;43.274;26.924;2023-03-14T14:33:41;3.73;;;1.13;;
37855;SDS011;23694;43.274;26.924;2023-03-14T14:39:28;5.23;;;1.30;;
37855;SDS011;23694;43.274;26.924;2023-03-14T14:41:39;1.15;;;0.82;;
37855;SDS011;23694;43.274;26.924;2023-03-14T14:44:07;1.40;;;0.93;;
37855;SDS011;23694;43.274;26.924;2023-03-14T14:46:37;2.07;;;0.83;;
37855;SDS011;23694;43.274;26.924;2023-03-14T14:49:13;2.73;;;1.10;;
37855;SDS011;23694;43.274;26.924;2023-03-14T14:51:50;2.10;;;0.80;;
37855;SDS011;23694;43.274;26.924;2023-03-14T14:54:17;2.17;;;0.87;;
37855;SDS011;23694;43.274;26.924;2023-03-14T14:56:46;1.20;;;0.90;;
37855;SDS011;23694;43.274;26.924;2023-03-14T14:59:24;3.38;;;1.15;;
37855;SDS011;23694;43.274;26.924;2023-03-14T15:02:16;0.93;;;0.80;;
37855;SDS011;23694;43.274;26.924;2023-03-14T15:05:05;1.73;;;1.00;;
37855;SDS011;23694;43.274;26.924;2023-03-14T15:07:37;2.17;;;1.50;;
37855;SDS011;23694;43.274;26.924;2023-03-14T15:10:03;6.37;;;1.00;;
37855;SDS011;23694;43.274;26.924;2023-03-14T15:12:30;1.83;;;1.10;;
37855;SDS011;23694;43.274;26.924;2023-03-14T15:14:56;2.00;;;0.90;;
37855;SDS011;23694;43.274;26.924;2023-03-14T15:17:23;4.83;;;1.60;;
37855;SDS011;23694;43.274;26.924;2023-03-14T15:19:49;4.13;;;2.60;;
37855;SDS011;23694;43.274;26.924;2023-03-14T15:22:15;4.30;;;2.13;;
37855;SDS011;23694;43.274;26.924;2023-03-14T15:24:42;3.13;;;1.93;;
37855;SDS011;23694;43.274;26.924;2023-03-14T15:27:10;1.30;;;1.20;;
37855;SDS011;23694;43.274;26.924;2023-03-14T15:29:40;7.10;;;3.88;;
37855;SDS011;23694;43.274;26.924;2023-03-14T15:32:08;4.83;;;2.40;;
37855;SDS011;23694;43.274;26.924;2023-03-14T15:34:37;4.40;;;3.10;;
37855;SDS011;23694;43.274;26.924;2023-03-14T15:37:03;3.70;;;1.50;;
37855;SDS011;23694;43.274;26.924;2023-03-14T15:39:33;5.20;;;2.20;;
37855;SDS011;23694;43.274;26.924;2023-03-14T15:42:00;7.80;;;2.60;;
37855;SDS011;23694;43.274;26.924;2023-03-14T15:44:26;4.47;;;2.50;;
37855;SDS011;23694;43.274;26.924;2023-03-14T15:46:52;3.27;;;1.70;;
37855;SDS011;23694;43.274;26.924;2023-03-14T15:49:18;4.03;;;1.67;;
37855;SDS011;23694;43.274;26.924;2023-03-14T15:51:44;4.50;;;1.63;;
37855;SDS011;23694;43.274;26.924;2023-03-14T15:54:10;5.27;;;2.37;;
37855;SDS011;23694;43.274;26.924;2023-03-14T15:56:36;6.70;;;2.87;;
37855;SDS011;23694;43.274;26.924;2023-03-14T15:59:06;8.10;;;3.67;;
37855;SDS011;23694;43.274;26.924;2023-03-14T16:01:32;6.17;;;2.97;;
37855;SDS011;23694;43.274;26.924;2023-03-14T16:03:58;6.47;;;3.13;;
37855;SDS011;23694;43.274;26.924;2023-03-14T16:06:24;6.53;;;3.10;;
37855;SDS011;23694;43.274;26.924;2023-03-14T16:08:50;5.73;;;2.67;;
37855;SDS011;23694;43.274;26.924;2023-03-14T16:11:16;6.47;;;2.63;;